Longueuil, Canada
Current Conditions -  °F | °C
As of 9:33 PM on Saturday 20 Dec 2014 (Local Time) from CYHU Reporting Station
Moderate Fog Moderate Fog  
Wind Chill: -20°   Ceiling: 200
Heat Index: -14°   Visibility: 0.37mi
Dew Point: -16°   Wind: 6mph
Humidity: 85%   Direction: 10°N
Pressure: 30.37"   Gusts: NA
Location:  45.54°N, 73.49°W
Report Text: CYHU 210233Z AUTO 01005KT 3/8SM R24R/P6000FT/D FZFG VV002 M14/M16 A3037 RMK SLP287
Loading
Personal Weather Stations






























Interactive Weather Map New forecast layout! Learn more

10-Day Weather Forecast

Advertisements
Track Severe Weather on mobile